Alleyton, Texas
Current Conditions -  °F | °C
As of 9:15 PM on Friday 21 Nov 2014 (Local Time) from K66R Reporting Station
Overcast Overcast  
Wind Chill: 66°   Ceiling: 4000
Heat Index: 66°   Visibility: 10mi
Dew Point: 64°   Wind: 6mph
Humidity: 92%   Direction: 120°ESE
Pressure: 30.1"   Gusts: NA
Location:  29.71°N, 96.49°W
Report Text: K66R 220315Z AUTO 12005KT 10SM SCT034 OVC040 19/18 A3010 RMK AO2 T01910178
Loading
Personal Weather Stations






























Interactive Weather Map New forecast layout! Learn more

10-Day Weather Forecast

Advertisements
Track Severe Weather on mobile